createdAt,value
2019-04-05T00:03:18.234Z,72.40
2019-04-05T00:08:21.440Z,72.40
2019-04-05T00:13:24.747Z,75.93
2019-04-05T00:18:27.734Z,79.60
2019-04-05T00:23:31.023Z,70.80
2019-04-05T00:28:34.380Z,78.87
2019-04-05T00:33:37.994Z,75.17
2019-04-05T00:38:40.486Z,68.80
2019-04-05T00:43:43.146Z,77.80
2019-04-05T00:48:46.351Z,82.20
2019-04-05T00:53:49.714Z,78.73
2019-04-05T00:58:52.933Z,68.53
2019-04-05T01:03:55.823Z,72.70
2019-04-05T01:08:59.029Z,75.80
2019-04-05T01:14:04.063Z,65.90
2019-04-05T01:19:07.975Z,66.23
2019-04-05T01:24:12.649Z,64.20
2019-04-05T01:29:17.959Z,76.07
2019-04-05T01:34:20.892Z,71.70
2019-04-05T01:39:24.157Z,70.43
2019-04-05T01:44:27.735Z,73.93
2019-04-05T01:49:30.620Z,67.27
2019-04-05T01:54:33.555Z,77.90
2019-04-05T01:59:36.153Z,72.17
2019-04-05T02:04:38.676Z,70.23
2019-04-05T02:09:41.662Z,66.07
2019-04-05T02:14:45.169Z,61.13
2019-04-05T02:19:48.389Z,77.47
2019-04-05T02:24:51.604Z,88.63
2019-04-05T02:29:54.179Z,82.03
2019-04-05T02:34:57.456Z,67.60
2019-04-05T02:39:59.939Z,68.20
2019-04-05T02:45:03.075Z,76.13
2019-04-05T02:50:07.259Z,80.80
2019-04-05T02:55:11.564Z,72.97
2019-04-05T03:00:14.721Z,67.83
2019-04-05T03:05:20.316Z,77.03
2019-04-05T03:11:00.355Z,72.57
2019-04-05T03:16:06.583Z,80.87
2019-04-05T03:21:11.272Z,74.20
2019-04-05T03:26:19.241Z,85.90
2019-04-05T03:31:25.090Z,73.23
2019-04-05T03:36:28.086Z,69.30
2019-04-05T03:41:31.921Z,72.50
2019-04-05T03:46:34.949Z,81.27
2019-04-05T03:51:38.197Z,74.83
2019-04-05T03:56:42.323Z,77.23
2019-04-05T04:01:45.493Z,72.13
2019-04-05T04:06:49.424Z,71.40
2019-04-05T04:11:53.144Z,87.53
2019-04-05T04:17:11.317Z,71.27
2019-04-05T04:22:19.430Z,84.30
2019-04-05T04:27:23.426Z,81.70
2019-04-05T04:32:26.877Z,71.10
2019-04-05T04:37:29.569Z,69.17
2019-04-05T04:42:32.708Z,69.73
2019-04-05T04:47:35.986Z,61.33
2019-04-05T04:52:40.086Z,72.27
2019-04-05T04:57:42.974Z,81.20
2019-04-05T05:02:46.050Z,70.37
2019-04-05T05:07:49.320Z,68.23
2019-04-05T05:12:53.071Z,66.57
2019-04-05T05:17:58.864Z,87.60
2019-04-05T05:23:01.290Z,86.40
2019-04-05T05:28:04.892Z,78.30
2019-04-05T05:33:08.079Z,72.93
2019-04-05T05:38:11.272Z,74.67
2019-04-05T05:43:14.577Z,82.23
2019-04-05T05:48:18.406Z,85.97
2019-04-05T05:53:21.710Z,71.07
2019-04-05T05:58:25.891Z,81.90
2019-04-05T06:03:29.815Z,74.17
2019-04-05T06:08:33.266Z,73.07
2019-04-05T06:13:36.782Z,75.90
2019-04-05T06:18:40.022Z,98.60
2019-04-05T06:23:42.898Z,77.13
2019-04-05T06:28:46.242Z,79.13
2019-04-05T06:33:49.426Z,77.43
2019-04-05T06:38:52.447Z,83.37
2019-04-05T06:43:55.945Z,68.17
2019-04-05T06:48:59.174Z,63.33
2019-04-05T06:54:03.465Z,76.67
2019-04-05T06:59:06.625Z,78.10
2019-04-05T07:04:10.230Z,74.77
2019-04-05T07:09:12.830Z,78.33
2019-04-05T07:14:15.697Z,77.00
2019-04-05T07:19:18.699Z,70.57
2019-04-05T07:24:21.961Z,67.90
2019-04-05T07:29:24.750Z,65.77
2019-04-05T07:34:29.495Z,79.87
2019-04-05T07:39:35.036Z,75.27
2019-04-05T07:44:37.920Z,75.03
2019-04-05T07:49:43.578Z,81.67
2019-04-05T07:54:46.432Z,72.23
2019-04-05T07:59:49.670Z,69.80
2019-04-05T08:04:54.604Z,67.70
2019-04-05T08:09:57.865Z,66.97
2019-04-05T08:15:01.314Z,70.83
2019-04-05T08:20:04.369Z,66.57
2019-04-05T08:25:07.956Z,72.90
2019-04-05T08:30:11.365Z,79.53
2019-04-05T08:35:14.884Z,78.57
2019-04-05T08:40:17.986Z,72.77
2019-04-05T08:45:20.558Z,78.13
2019-04-05T08:50:23.495Z,83.40
2019-04-05T08:55:26.149Z,75.57
2019-04-05T09:00:29.496Z,64.60
2019-04-05T09:05:33.538Z,76.60
2019-04-05T09:10:36.841Z,80.67
2019-04-05T09:15:39.629Z,71.20
2019-04-05T09:20:43.007Z,78.50
2019-04-05T09:25:46.251Z,77.33
2019-04-05T09:30:51.886Z,70.80
2019-04-05T09:35:54.956Z,66.00
2019-04-05T09:40:58.199Z,76.13
2019-04-05T09:46:01.160Z,73.70
2019-04-05T09:51:07.123Z,68.73
2019-04-05T09:56:09.890Z,73.67
2019-04-05T10:01:13.352Z,74.93
2019-04-05T10:06:16.254Z,71.10
2019-04-05T10:11:19.159Z,74.63
2019-04-05T10:16:22.053Z,61.97
2019-04-05T10:21:25.548Z,63.10
2019-04-05T10:26:29.111Z,63.70
2019-04-05T10:31:32.307Z,57.33
2019-04-05T10:36:35.514Z,64.80
2019-04-05T10:41:38.741Z,67.30
2019-04-05T10:46:41.281Z,61.13
2019-04-05T10:51:44.012Z,54.43
2019-04-05T10:56:46.872Z,59.80
2019-04-05T11:01:50.063Z,61.20
2019-04-05T11:06:53.269Z,62.57
2019-04-05T11:11:56.233Z,71.37
2019-04-05T11:16:59.457Z,65.03
2019-04-05T11:22:02.868Z,66.50
2019-04-05T11:27:06.841Z,72.03
2019-04-05T11:32:10.498Z,64.83
2019-04-05T11:37:13.862Z,61.53
2019-04-05T11:42:19.365Z,61.43
2019-04-05T11:47:22.621Z,52.30
2019-04-05T11:52:25.461Z,51.70
2019-04-05T11:57:28.394Z,64.07
2019-04-05T12:02:43.902Z,47.33
2019-04-05T12:07:47.386Z,56.20
2019-04-05T12:12:50.938Z,60.30
2019-04-05T12:17:54.561Z,53.13
2019-04-05T12:22:57.057Z,56.07
2019-04-05T12:28:06.338Z,59.40
2019-04-05T12:33:13.665Z,54.03
2019-04-05T12:38:10.581Z,39.60
2019-04-05T12:43:14.324Z,54.33
2019-04-05T12:48:17.607Z,43.70
2019-04-05T12:53:20.504Z,44.13
2019-04-05T12:58:25.892Z,47.23
2019-04-05T13:03:29.148Z,42.93
2019-04-05T13:08:32.598Z,54.30
2019-04-05T13:13:35.763Z,49.87
2019-04-05T13:18:38.744Z,44.60
2019-04-05T13:23:42.044Z,48.00
2019-04-05T13:28:46.474Z,47.97
2019-04-05T13:33:54.342Z,42.23
2019-04-05T13:38:55.445Z,43.93
2019-04-05T13:44:01.240Z,46.33
2019-04-05T13:49:03.494Z,45.23
2019-04-05T13:54:08.552Z,42.87
2019-04-05T13:59:11.778Z,44.30
2019-04-05T14:04:17.052Z,40.00
2019-04-05T14:09:20.080Z,51.30
2019-04-05T14:14:23.247Z,49.00
2019-04-05T14:19:28.809Z,61.03
2019-04-05T14:24:31.799Z,50.73
2019-04-05T14:29:35.532Z,47.60
2019-04-05T14:34:39.093Z,44.27
2019-04-05T14:39:42.151Z,47.77
2019-04-05T14:44:45.677Z,46.23
2019-04-05T14:49:48.882Z,45.83
2019-04-05T14:54:52.298Z,51.87
2019-04-05T14:59:54.959Z,48.27
2019-04-05T15:04:58.248Z,53.73
2019-04-05T15:10:03.728Z,54.30
2019-04-05T15:15:07.098Z,50.10
2019-04-05T15:20:10.716Z,52.00
2019-04-05T15:25:16.653Z,59.17
2019-04-05T15:30:19.484Z,56.57
2019-04-05T15:35:22.987Z,62.50
2019-04-05T15:40:26.355Z,61.70
2019-04-05T15:45:29.532Z,58.73
2019-04-05T15:50:33.859Z,49.40
2019-04-05T15:55:37.069Z,55.00
2019-04-05T16:00:42.454Z,56.03
2019-04-05T16:05:46.232Z,55.40
2019-04-05T16:10:49.166Z,58.57
2019-04-05T16:15:52.369Z,62.70
2019-04-05T16:20:55.502Z,57.33
2019-04-05T16:25:59.063Z,57.43
2019-04-05T16:31:02.049Z,45.67
2019-04-05T16:36:05.623Z,52.20
2019-04-05T16:41:09.165Z,57.67
2019-04-05T16:46:12.751Z,59.30
2019-04-05T16:51:16.070Z,57.20
2019-04-05T16:56:19.132Z,57.57
2019-04-05T17:01:27.215Z,53.93
2019-04-05T17:06:27.631Z,52.50
2019-04-05T17:11:30.206Z,44.20
2019-04-05T17:16:33.447Z,47.83
2019-04-05T17:21:36.941Z,49.53
2019-04-05T17:26:39.836Z,44.70
2019-04-05T17:31:43.190Z,41.53
2019-04-05T17:36:46.513Z,45.17
2019-04-05T17:41:49.104Z,55.13
2019-04-05T17:46:52.064Z,50.03
2019-04-05T17:51:55.302Z,50.23
2019-04-05T17:56:59.699Z,56.37
2019-04-05T18:02:03.252Z,60.10
2019-04-05T18:07:06.184Z,52.50
2019-04-05T18:12:09.158Z,59.63
2019-04-05T18:17:12.408Z,63.37
2019-04-05T18:22:15.389Z,54.70
2019-04-05T18:27:19.003Z,60.20
2019-04-05T18:32:22.243Z,57.90
2019-04-05T18:37:25.547Z,59.97
2019-04-05T18:42:28.455Z,59.50
2019-04-05T18:47:31.855Z,63.83
2019-04-05T18:52:34.760Z,63.20
2019-04-05T18:57:38.439Z,66.27
2019-04-05T19:02:43.203Z,62.97
2019-04-05T19:07:47.061Z,61.40
2019-04-05T19:12:55.270Z,61.30
2019-04-05T19:17:58.146Z,55.37
2019-04-05T19:23:02.492Z,62.90
2019-04-05T19:28:09.163Z,70.00
2019-04-05T19:48:37.802Z,64.47
2019-04-05T19:53:41.993Z,60.37
2019-04-05T19:58:45.652Z,69.37
2019-04-05T20:03:52.852Z,75.67
2019-04-05T20:08:56.668Z,63.80
2019-04-05T20:14:00.338Z,73.37
2019-04-05T20:19:04.238Z,72.37
2019-04-05T20:24:14.149Z,79.37
2019-04-05T20:29:13.265Z,89.55
2019-04-05T20:34:16.877Z,90.13
2019-04-05T20:39:19.950Z,85.80
2019-04-05T20:44:23.016Z,99.03
2019-04-05T20:49:26.273Z,95.00
2019-04-05T20:54:29.594Z,99.33
2019-04-05T20:59:33.218Z,107.33
2019-04-05T21:04:36.516Z,106.03
2019-04-05T21:09:39.831Z,104.33
2019-04-05T21:14:43.561Z,104.20
2019-04-05T21:19:46.169Z,111.10
2019-04-05T21:24:49.565Z,110.33
2019-04-05T21:29:52.922Z,113.20
2019-04-05T21:34:55.896Z,118.97
2019-04-05T21:39:59.436Z,113.53
2019-04-05T21:45:02.732Z,146.50
2019-04-05T21:50:08.429Z,142.27
2019-04-05T21:55:10.990Z,160.83
2019-04-05T22:00:22.214Z,168.57
2019-04-05T22:05:25.508Z,161.40
2019-04-05T22:10:29.388Z,167.10
2019-04-05T22:15:32.690Z,153.63
2019-04-05T22:20:36.919Z,153.87
2019-04-05T22:25:39.895Z,156.57
2019-04-05T22:30:43.685Z,168.07
2019-04-05T22:35:46.607Z,173.07
2019-04-05T22:40:49.294Z,178.60
2019-04-05T22:45:52.511Z,157.87
2019-04-05T22:50:56.100Z,163.50
2019-04-05T22:55:59.288Z,158.90
2019-04-05T23:01:02.558Z,159.43
2019-04-05T23:06:05.749Z,145.77
2019-04-05T23:11:09.090Z,150.83
2019-04-05T23:16:12.297Z,152.77
2019-04-05T23:21:15.462Z,157.40
2019-04-05T23:26:18.685Z,155.70
2019-04-05T23:31:21.919Z,150.93
2019-04-05T23:36:25.135Z,145.03
2019-04-05T23:41:27.879Z,151.60
2019-04-05T23:46:30.793Z,139.20
2019-04-05T23:51:34.136Z,132.93
2019-04-05T23:56:37.339Z,129.40
